Time;durP1;ratioP1;P1;durP2;ratioP2;P2;SDS_P1;SDS_P2;PMS_P1;PMS_P2;Temp;Humidity;BMP_temperature;BMP_pressure;BME280_temperature;BME280_humidity;BME280_pressure;Samples;Min_cycle;Max_cycle;Signal;HPM_P1;HPM_P2
2022/05/20 00:01:03;;;;;;;1999.90;999.90;;;19.20;99.90;;;;;;4917802;29;20079;-86
2022/05/20 00:03:31;;;;;;;1999.90;999.90;;;19.20;99.90;;;;;;4919443;29;20024;-86
2022/05/20 00:05:57;;;;;;;1999.90;999.90;;;19.30;99.90;;;;;;4919838;29;20092;-86
2022/05/20 00:08:23;;;;;;;1999.90;999.90;;;19.30;99.90;;;;;;4917138;29;20028;-75
2022/05/20 00:10:53;;;;;;;1999.90;999.90;;;19.20;99.90;;;;;;4919038;29;20483;-86
2022/05/20 00:13:24;;;;;;;1999.90;999.90;;;19.20;99.90;;;;;;4925029;29;20040;-75
2022/05/20 00:15:50;;;;;;;1999.90;999.90;;;19.10;99.90;;;;;;4919218;29;20384;-85
2022/05/20 00:18:16;;;;;;;1999.90;999.90;;;18.90;99.90;;;;;;4920591;29;20032;-85
2022/05/20 00:20:42;;;;;;;1999.90;999.90;;;18.70;99.90;;;;;;4918637;29;20551;-74
2022/05/20 00:23:12;;;;;;;1999.90;999.90;;;18.60;99.90;;;;;;4918948;29;20036;-74
2022/05/20 00:25:46;;;;;;;1999.90;999.90;;;18.50;99.90;;;;;;4918950;29;20024;-85
2022/05/20 00:28:18;;;;;;;1999.90;999.90;;;18.40;99.90;;;;;;4918797;29;20028;-74
2022/05/20 00:30:43;;;;;;;1999.90;999.90;;;18.30;99.90;;;;;;4918205;29;20055;-74
2022/05/20 00:33:09;;;;;;;1999.90;999.90;;;18.30;99.90;;;;;;4918785;29;20036;-74
2022/05/20 00:35:35;;;;;;;1999.90;999.90;;;18.30;99.90;;;;;;4917920;29;20048;-85
2022/05/20 00:38:01;;;;;;;1999.90;999.90;;;18.30;99.90;;;;;;4924404;29;20026;-80
2022/05/20 00:40:28;;;;;;;1999.90;999.90;;;18.30;99.90;;;;;;4928942;29;20554;-74
2022/05/20 00:43:29;;;;;;;1999.90;999.90;;;18.30;99.90;;;;;;4918275;29;20079;-74
2022/05/20 00:46:00;;;;;;;1999.90;999.90;;;18.30;99.90;;;;;;4908409;29;20024;-86
2022/05/20 00:48:27;;;;;;;1999.90;999.90;;;18.30;99.90;;;;;;4930761;29;20503;-85
2022/05/20 00:51:14;;;;;;;1999.90;999.90;;;18.30;99.90;;;;;;4916845;29;20096;-74
2022/05/20 00:53:54;;;;;;;1999.90;999.90;;;18.40;99.90;;;;;;4918414;29;20400;-85
2022/05/20 00:56:28;;;;;;;1999.90;999.90;;;18.30;99.90;;;;;;4916505;29;20142;-74
2022/05/20 00:58:55;;;;;;;1999.90;999.90;;;18.30;99.90;;;;;;4906205;29;20090;-85
2022/05/20 01:01:22;;;;;;;1999.90;999.90;;;18.30;99.90;;;;;;4918661;29;20035;-74
2022/05/20 01:03:51;;;;;;;1999.90;999.90;;;18.40;99.90;;;;;;4918938;29;20068;-74
2022/05/20 01:06:16;;;;;;;1999.90;999.90;;;18.40;99.90;;;;;;4916722;29;20024;-74
2022/05/20 01:08:42;;;;;;;1999.90;999.90;;;18.50;99.90;;;;;;4918321;29;20030;-74
2022/05/20 01:11:08;;;;;;;1999.90;999.90;;;18.40;99.90;;;;;;4917654;29;20496;-85
2022/05/20 01:13:35;;;;;;;1999.90;999.90;;;18.50;99.90;;;;;;4919075;29;20043;-74
2022/05/20 01:16:04;;;;;;;1999.90;999.90;;;18.50;99.90;;;;;;4911902;29;20020;-74
2022/05/20 01:18:36;;;;;;;1999.90;999.90;;;18.50;99.90;;;;;;4916494;29;20024;-86
2022/05/20 01:21:03;;;;;;;1999.90;999.90;;;18.50;99.90;;;;;;4917250;29;20064;-75
2022/05/20 01:23:31;;;;;;;1999.90;999.90;;;18.60;99.90;;;;;;4917539;29;20067;-74
2022/05/20 01:25:58;;;;;;;1999.90;999.90;;;18.60;99.90;;;;;;4917675;29;20440;-74
2022/05/20 01:28:26;;;;;;;1999.90;999.90;;;18.60;99.90;;;;;;4916491;29;20033;-85
2022/05/20 01:30:58;;;;;;;1999.90;999.90;;;18.60;99.90;;;;;;4916156;29;20038;-75
2022/05/20 01:33:31;;;;;;;1999.90;999.90;;;18.70;99.90;;;;;;4917821;29;20028;-86
2022/05/20 01:35:58;;;;;;;1999.90;999.90;;;18.60;99.90;;;;;;4917468;29;20391;-74
2022/05/20 01:38:24;;;;;;;1999.90;999.90;;;18.70;99.90;;;;;;4920309;29;20472;-74
2022/05/20 01:41:38;;;;;;;1999.90;999.90;;;18.60;99.90;;;;;;4916793;29;20035;-75
2022/05/20 01:44:13;;;;;;;1999.90;999.90;;;18.60;99.90;;;;;;4905643;29;20032;-74
2022/05/20 01:46:53;;;;;;;1999.90;999.90;;;18.60;99.90;;;;;;4918589;29;20029;-85
2022/05/20 01:49:24;;;;;;;1999.90;999.90;;;18.50;99.90;;;;;;4926630;29;20032;-85
2022/05/20 01:52:02;;;;;;;1999.90;999.90;;;18.50;99.90;;;;;;4917173;29;20036;-74
2022/05/20 01:55:01;;;;;;;1999.90;999.90;;;18.50;99.90;;;;;;4915976;29;20559;-85
2022/05/20 01:57:43;;;;;;;1999.90;999.90;;;18.50;99.90;;;;;;4907035;29;20072;-85
2022/05/20 02:00:15;;;;;;;1999.90;999.90;;;18.50;99.90;;;;;;4917004;29;20028;-74
2022/05/20 02:02:53;;;;;;;1999.90;999.90;;;18.40;99.90;;;;;;4917580;29;20028;-74
2022/05/20 02:05:33;;;;;;;1999.90;999.90;;;18.40;99.90;;;;;;4923740;29;20102;-74
2022/05/20 02:08:11;;;;;;;1999.90;999.90;;;18.40;99.90;;;;;;4919673;29;20060;-75
2022/05/20 02:10:46;;;;;;;1999.90;999.90;;;18.30;99.90;;;;;;4916909;29;20480;-75
2022/05/20 02:13:14;;;;;;;1999.90;999.90;;;18.30;99.90;;;;;;4923005;29;20063;-75
2022/05/20 02:15:48;;;;;;;1999.90;999.90;;;18.30;99.90;;;;;;4916253;29;20068;-86
2022/05/20 02:18:42;;;;;;;1999.90;999.90;;;18.30;99.90;;;;;;4900248;29;20554;-85
2022/05/20 02:21:15;;;;;;;1999.90;999.90;;;18.20;99.90;;;;;;4911162;29;20507;-74
2022/05/20 02:23:50;;;;;;;1999.90;999.90;;;18.20;99.90;;;;;;4916990;29;20067;-86
2022/05/20 02:26:21;;;;;;;1999.90;999.90;;;18.10;99.90;;;;;;4915482;29;20028;-85
2022/05/20 02:28:55;;;;;;;1999.90;999.90;;;18.00;99.90;;;;;;4916920;29;20043;-75
2022/05/20 02:31:28;;;;;;;1999.90;999.90;;;17.90;99.90;;;;;;4912779;29;20032;-75
2022/05/20 02:33:53;;;;;;;;;;;17.80;99.90;;;;;;4915732;29;20123;-74
2022/05/20 02:36:22;;;;;;;1999.90;999.90;;;17.80;99.90;;;;;;4919778;29;20405;-77
2022/05/20 02:38:47;;;;;;;1999.90;999.90;;;17.80;99.90;;;;;;4923892;29;20025;-75
2022/05/20 02:41:13;;;;;;;1999.90;999.90;;;17.80;99.90;;;;;;4919350;29;20399;-74
2022/05/20 02:43:39;;;;;;;1999.90;999.90;;;17.80;99.90;;;;;;4920357;29;20033;-74
2022/05/20 02:46:05;;;;;;;1999.90;999.90;;;17.80;99.90;;;;;;4922768;29;20530;-74
2022/05/20 02:48:31;;;;;;;1999.90;999.90;;;17.80;99.90;;;;;;4932246;29;20024;-75
2022/05/20 02:50:58;;;;;;;1999.90;999.90;;;17.80;99.90;;;;;;4911001;29;20504;-86
2022/05/20 02:53:24;;;;;;;1999.90;999.90;;;17.80;99.90;;;;;;4916293;29;20043;-75
2022/05/20 02:55:49;;;;;;;1999.90;999.90;;;17.80;99.90;;;;;;4923512;29;20060;-75
2022/05/20 03:04:10;;;;;;;1999.90;999.90;;;17.70;99.90;;;;;;4920452;29;20514;-85
2022/05/20 03:06:48;;;;;;;1999.90;999.90;;;17.70;99.90;;;;;;4919832;29;20492;-74
2022/05/20 03:09:16;;;;;;;1999.90;999.90;;;17.60;99.90;;;;;;4919176;29;20103;-85
2022/05/20 03:11:42;;;;;;;1999.90;999.90;;;17.70;99.90;;;;;;4920147;29;20462;-75
2022/05/20 03:14:10;;;;;;;1999.90;999.90;;;17.70;99.90;;;;;;4926659;29;20119;-86
2022/05/20 03:16:37;;;;;;;1999.90;999.90;;;17.60;99.90;;;;;;4917616;29;20028;-85
2022/05/20 03:19:04;;;;;;;1999.90;999.90;;;17.70;99.90;;;;;;4911716;29;20483;-75
2022/05/20 03:21:30;;;;;;;1999.90;999.90;;;17.80;99.90;;;;;;4919626;29;20475;-85
2022/05/20 03:23:59;;;;;;;1999.90;999.90;;;17.80;99.90;;;;;;4918816;29;20109;-86
2022/05/20 03:26:29;;;;;;;1999.90;999.90;;;17.80;99.90;;;;;;4920345;29;20030;-85
2022/05/20 03:28:57;;;;;;;1999.90;999.90;;;17.90;99.90;;;;;;4920054;29;20028;-84
2022/05/20 03:31:23;;;;;;;1999.90;999.90;;;17.90;99.90;;;;;;4920127;29;20016;-85
2022/05/20 03:33:48;;;;;;;1999.90;999.90;;;18.00;99.90;;;;;;4918522;29;20089;-85
2022/05/20 03:36:14;;;;;;;1999.90;999.90;;;18.10;99.90;;;;;;4919746;29;20020;-74
2022/05/20 03:38:40;;;;;;;1999.90;999.90;;;18.10;99.90;;;;;;4931161;29;20027;-75
2022/05/20 03:41:06;;;;;;;1999.90;999.90;;;18.10;99.90;;;;;;4919314;29;20031;-86
2022/05/20 03:43:35;;;;;;;1999.90;999.90;;;18.10;99.90;;;;;;4919075;29;20028;-75
2022/05/20 03:46:04;;;;;;;1999.90;999.90;;;18.00;99.90;;;;;;4921713;29;20024;-75
2022/05/20 03:48:30;;;;;;;1999.90;999.90;;;18.00;99.90;;;;;;4932438;29;20066;-75
2022/05/20 03:50:56;;;;;;;1999.90;999.90;;;18.00;99.90;;;;;;4918087;29;20460;-85
2022/05/20 03:53:22;;;;;;;1999.90;999.90;;;18.00;99.90;;;;;;4919653;29;20529;-85
2022/05/20 03:55:47;;;;;;;1999.90;999.90;;;18.10;99.90;;;;;;4918956;29;20044;-74
2022/05/20 03:58:14;;;;;;;1999.90;999.90;;;18.00;99.90;;;;;;4918362;29;20091;-75
2022/05/20 04:03:24;;;;;;;1999.90;999.90;;;18.00;99.90;;;;;;4919017;29;20115;-86
2022/05/20 04:05:51;;;;;;;1999.90;999.90;;;18.00;99.90;;;;;;4919338;29;20020;-75
2022/05/20 04:08:17;;;;;;;1999.90;999.90;;;18.00;99.90;;;;;;4919266;29;20053;-86
2022/05/20 04:10:43;;;;;;;1999.90;999.90;;;17.90;99.90;;;;;;4918889;29;20024;-75
2022/05/20 04:13:09;;;;;;;1999.90;999.90;;;18.00;99.90;;;;;;4924819;29;20032;-87
2022/05/20 04:15:34;;;;;;;1999.90;999.90;;;18.00;99.90;;;;;;4917704;29;20067;-74
2022/05/20 04:18:00;;;;;;;1999.90;999.90;;;18.00;99.90;;;;;;4918813;29;20035;-74
2022/05/20 04:20:26;;;;;;;1999.90;999.90;;;17.90;99.90;;;;;;4914106;29;20066;-86
2022/05/20 04:22:52;;;;;;;1999.90;999.90;;;17.90;99.90;;;;;;4915512;29;20055;-85
2022/05/20 04:25:17;;;;;;;1999.90;999.90;;;17.90;99.90;;;;;;4917646;29;20451;-85
2022/05/20 04:27:43;;;;;;;1999.90;999.90;;;18.00;99.90;;;;;;4917464;29;20032;-74
2022/05/20 04:30:09;;;;;;;1999.90;999.90;;;18.00;99.90;;;;;;4918274;29;20504;-74
2022/05/20 04:32:35;;;;;;;1999.90;999.90;;;18.00;99.90;;;;;;4917382;29;20035;-86
2022/05/20 04:35:01;;;;;;;1999.90;999.90;;;18.10;99.90;;;;;;4918709;29;20028;-85
2022/05/20 04:37:27;;;;;;;1999.90;999.90;;;18.10;99.90;;;;;;4927406;29;20040;-75
2022/05/20 04:39:54;;;;;;;1999.90;999.90;;;18.10;99.90;;;;;;4927116;29;20028;-85
2022/05/20 04:47:49;;;;;;;1999.90;999.90;;;18.30;99.90;;;;;;4931712;29;20034;-86
2022/05/20 04:50:15;;;;;;;1999.90;999.90;;;18.30;99.90;;;;;;4919814;29;20040;-75
2022/05/20 04:52:40;;;;;;;1999.90;999.90;;;18.30;99.90;;;;;;4918683;29;20103;-75
2022/05/20 04:55:07;;;;;;;1999.90;999.90;;;18.30;99.90;;;;;;4917296;29;20016;-74
2022/05/20 04:57:48;;;;;;;1999.90;999.90;;;18.40;99.90;;;;;;4925149;29;20028;-86
2022/05/20 05:00:23;;;;;;;1999.90;999.90;;;18.40;99.90;;;;;;4916685;29;20455;-86
2022/05/20 05:02:50;;;;;;;1999.90;999.90;;;18.40;99.90;;;;;;4913695;29;20084;-74
2022/05/20 05:05:19;;;;;;;1999.90;999.90;;;18.50;99.90;;;;;;4924607;29;20024;-74
2022/05/20 05:07:47;;;;;;;1999.90;999.90;;;18.50;99.90;;;;;;4923972;29;20029;-75
2022/05/20 05:10:16;;;;;;;1999.90;999.90;;;18.60;99.90;;;;;;4918334;29;20053;-86
2022/05/20 05:12:42;;;;;;;1999.90;999.90;;;18.70;99.90;;;;;;4922884;29;20035;-86
2022/05/20 05:15:08;;;;;;;1999.90;999.90;;;18.80;99.90;;;;;;4918190;29;20096;-75
2022/05/20 05:20:21;;;;;;;1999.90;999.90;;;18.90;99.90;;;;;;4917471;29;20123;-86
2022/05/20 05:22:51;;;;;;;1999.90;999.90;;;18.90;99.90;;;;;;4918078;29;20103;-74
2022/05/20 05:25:19;;;;;;;1999.90;999.90;;;18.90;99.90;;;;;;4917292;29;20119;-86
2022/05/20 05:27:44;;;;;;;1999.90;999.90;;;19.00;99.90;;;;;;4913201;29;20036;-74
2022/05/20 05:30:13;;;;;;;1999.90;999.90;;;19.10;99.90;;;;;;4909263;29;20038;-74
2022/05/20 05:32:41;;;;;;;1999.90;999.90;;;19.10;99.90;;;;;;4917902;29;20107;-74
2022/05/20 05:35:09;;;;;;;1999.90;999.90;;;19.20;99.90;;;;;;4915753;29;20092;-80
2022/05/20 05:37:37;;;;;;;1999.90;999.90;;;19.30;99.90;;;;;;4914618;29;20038;-85
2022/05/20 05:40:04;;;;;;;1999.90;999.90;;;19.30;99.90;;;;;;4915988;29;20036;-74
2022/05/20 05:42:30;;;;;;;1999.90;999.90;;;19.40;99.90;;;;;;4917046;29;20028;-85
2022/05/20 05:44:59;;;;;;;1999.90;999.90;;;19.50;99.90;;;;;;4915992;29;20020;-75
2022/05/20 05:47:25;;;;;;;1999.90;999.90;;;19.50;99.90;;;;;;4925621;29;20023;-86
2022/05/20 05:49:51;;;;;;;1999.90;999.90;;;19.60;99.90;;;;;;4922515;29;20047;-85
2022/05/20 05:52:16;;;;;;;1999.90;999.90;;;19.60;99.90;;;;;;4917126;29;20078;-75
2022/05/20 05:54:42;;;;;;;1999.90;999.90;;;19.60;99.90;;;;;;4921391;29;20050;-74
2022/05/20 05:57:07;;;;;;;1999.90;999.90;;;19.60;99.90;;;;;;4916224;29;20079;-75
2022/05/20 05:59:34;;;;;;;1999.90;999.90;;;19.60;99.90;;;;;;4914646;29;20032;-75
2022/05/20 06:02:01;;;;;;;1999.90;999.90;;;19.60;99.90;;;;;;4916194;29;20016;-86
2022/05/20 06:04:27;;;;;;;1999.90;999.90;;;19.70;99.90;;;;;;4916478;29;20027;-86
2022/05/20 06:06:54;;;;;;;1999.90;999.90;;;19.80;99.90;;;;;;4915957;29;20024;-85
2022/05/20 06:09:20;;;;;;;1999.90;999.90;;;19.90;99.90;;;;;;4919310;29;20028;-75
2022/05/20 06:11:45;;;;;;;1999.90;999.90;;;20.10;99.90;;;;;;4916478;29;20428;-75
2022/05/20 06:14:11;;;;;;;1999.90;999.90;;;20.20;99.90;;;;;;4923156;29;20160;-76
2022/05/20 06:16:39;;;;;;;1999.90;999.90;;;20.20;99.90;;;;;;4922097;29;20443;-84
2022/05/20 06:19:05;;;;;;;1999.90;999.90;;;20.30;99.90;;;;;;4911334;29;20092;-85
2022/05/20 06:21:31;;;;;;;1999.90;999.90;;;20.30;99.90;;;;;;4927709;29;20021;-85
2022/05/20 06:23:57;;;;;;;1999.90;999.90;;;20.40;99.90;;;;;;4915615;29;20024;-85
2022/05/20 06:26:23;;;;;;;1999.90;999.90;;;20.50;99.90;;;;;;4922474;29;20111;-76
2022/05/20 06:28:48;;;;;;;1999.90;999.90;;;20.60;99.90;;;;;;4921988;29;20160;-76
2022/05/20 06:31:14;;;;;;;1999.90;999.90;;;20.60;99.90;;;;;;4912717;29;20036;-85
2022/05/20 06:33:40;;;;;;;1999.90;999.90;;;20.60;99.90;;;;;;4909231;29;20039;-85
2022/05/20 06:41:34;;;;;;;1999.90;999.90;;;20.60;99.90;;;;;;4915424;29;20039;-75
2022/05/20 06:44:01;;;;;;;1999.90;999.90;;;20.60;99.90;;;;;;4915044;29;20036;-74
2022/05/20 06:46:27;;;;;;;1999.90;999.90;;;20.60;99.90;;;;;;4913428;29;20027;-84
2022/05/20 06:48:55;;;;;;;1999.90;999.90;;;20.80;99.90;;;;;;4926486;29;20047;-84
2022/05/20 06:51:29;;;;;;;1999.90;999.90;;;21.00;99.90;;;;;;4914094;29;20032;-82
2022/05/20 06:53:59;;;;;;;1999.90;999.90;;;21.10;99.90;;;;;;4911971;29;20119;-83
2022/05/20 06:56:28;;;;;;;1999.90;999.90;;;21.00;99.90;;;;;;4909356;29;20056;-80
2022/05/20 06:58:55;;;;;;;1999.90;999.90;;;21.00;99.90;;;;;;4915022;29;20122;-81
2022/05/20 07:01:21;;;;;;;1999.90;999.90;;;21.00;99.90;;;;;;4913339;29;20031;-75
2022/05/20 07:03:47;;;;;;;1999.90;999.90;;;20.80;99.90;;;;;;4913110;29;20444;-81
2022/05/20 07:06:14;;;;;;;1999.90;999.90;;;20.80;99.90;;;;;;4908390;29;20029;-83
2022/05/20 07:08:40;;;;;;;1999.90;999.90;;;20.80;99.90;;;;;;4914716;29;20028;-75
2022/05/20 07:11:06;;;;;;;1999.90;999.90;;;20.80;99.90;;;;;;4912414;29;20024;-76
2022/05/20 07:13:32;;;;;;;1999.90;999.90;;;20.70;99.90;;;;;;4912890;29;20058;-83
2022/05/20 07:15:59;;;;;;;1999.90;999.90;;;20.70;99.90;;;;;;4909777;29;20122;-86
2022/05/20 07:18:28;;;;;;;1999.90;999.90;;;20.70;99.90;;;;;;4914500;29;20036;-75
2022/05/20 07:20:54;;;;;;;1999.90;999.90;;;20.70;99.90;;;;;;4915142;29;20040;-79
2022/05/20 07:23:24;;;;;;;1999.90;999.90;;;20.80;99.90;;;;;;4916749;29;20039;-76
2022/05/20 07:25:51;;;;;;;1999.90;999.90;;;20.80;99.90;;;;;;4914885;29;20028;-84
2022/05/20 07:28:17;;;;;;;1999.90;999.90;;;20.80;99.90;;;;;;4913055;29;20044;-81
2022/05/20 07:30:42;;;;;;;1999.90;999.90;;;20.90;99.90;;;;;;4912688;29;20083;-75
2022/05/20 07:33:08;;;;;;;1999.90;999.90;;;21.00;99.90;;;;;;4909699;29;20036;-74
2022/05/20 07:35:36;;;;;;;1999.90;999.90;;;20.90;99.90;;;;;;4916969;29;20036;-81
2022/05/20 07:38:02;;;;;;;1999.90;999.90;;;20.80;99.90;;;;;;4916689;28;20040;-81
2022/05/20 07:40:28;;;;;;;1999.90;999.90;;;20.80;99.90;;;;;;4915634;29;20052;-80
2022/05/20 07:42:54;;;;;;;1999.90;999.90;;;20.80;99.90;;;;;;4911194;29;20064;-74
2022/05/20 07:45:20;;;;;;;1999.90;999.90;;;21.00;99.90;;;;;;4915620;29;20469;-74
2022/05/20 07:47:45;;;;;;;1999.90;999.90;;;21.10;99.90;;;;;;4917910;29;20060;-77
2022/05/20 07:50:12;;;;;;;1999.90;999.90;;;21.00;99.90;;;;;;4916586;29;20447;-80
2022/05/20 07:55:29;;;;;;;1999.90;999.90;;;21.10;99.90;;;;;;4914019;29;20135;-80
2022/05/20 07:57:55;;;;;;;1999.90;999.90;;;21.10;99.90;;;;;;4910352;29;20039;-79
2022/05/20 08:00:22;;;;;;;1999.90;999.90;;;20.90;99.90;;;;;;4911504;29;20119;-82
2022/05/20 08:02:49;;;;;;;1999.90;999.90;;;20.60;99.90;;;;;;4909922;29;20025;-80
2022/05/20 08:05:20;;;;;;;1999.90;999.90;;;20.60;99.90;;;;;;4914554;29;20032;-82
2022/05/20 08:07:47;;;;;;;1999.90;999.90;;;20.50;99.90;;;;;;4910467;29;20021;-75
2022/05/20 08:10:21;;;;;;;1999.90;999.90;;;20.50;99.90;;;;;;4914200;29;20059;-79
2022/05/20 08:12:48;;;;;;;1999.90;999.90;;;20.40;99.90;;;;;;4911137;29;20031;-75
2022/05/20 08:15:16;;;;;;;1999.90;999.90;;;20.40;99.90;;;;;;4907237;29;20042;-79
2022/05/20 08:17:43;;;;;;;1999.90;999.90;;;20.30;99.90;;;;;;4910250;29;20031;-81
2022/05/20 08:20:16;;;;;;;1999.90;999.90;;;20.40;99.90;;;;;;4914139;29;20084;-74
2022/05/20 08:22:41;;;;;;;1999.90;999.90;;;20.60;99.90;;;;;;4914820;29;20047;-80
2022/05/20 08:25:07;;;;;;;1999.90;999.90;;;20.60;99.90;;;;;;4915114;29;20094;-82
2022/05/20 08:27:33;;;;;;;1999.90;999.90;;;20.50;99.90;;;;;;4916291;29;20040;-75
2022/05/20 08:30:06;;;;;;;1999.90;999.90;;;20.60;99.90;;;;;;4909691;29;20460;-74
2022/05/20 08:32:31;;;;;;;1999.90;999.90;;;20.60;99.90;;;;;;4910382;29;20107;-81
2022/05/20 08:34:57;;;;;;;1999.90;999.90;;;20.60;99.90;;;;;;4909287;29;20124;-74
2022/05/20 08:37:22;;;;;;;1999.90;999.90;;;20.80;99.90;;;;;;4911954;29;20380;-75
2022/05/20 08:39:48;;;;;;;1999.90;999.90;;;21.00;99.90;;;;;;4905202;29;20056;-79
2022/05/20 08:42:19;;;;;;;1999.90;999.90;;;21.10;99.90;;;;;;4917479;29;20050;-82
2022/05/20 08:44:45;;;;;;;1999.90;999.90;;;21.10;99.90;;;;;;4917857;29;20095;-76
2022/05/20 08:47:36;;;;;;;1999.90;999.90;;;21.10;99.90;;;;;;4918613;29;20047;-83
2022/05/20 08:50:06;;;;;;;1999.90;999.90;;;20.90;99.90;;;;;;4914609;29;20294;-83
2022/05/20 08:52:32;;;;;;;1999.90;999.90;;;21.00;99.90;;;;;;4914900;29;20034;-75
2022/05/20 08:54:58;;;;;;;1999.90;999.90;;;21.10;99.90;;;;;;4928257;29;20104;-81
2022/05/20 08:57:27;;;;;;;1999.90;999.90;;;21.00;99.90;;;;;;4919140;29;20036;-75
2022/05/20 08:59:54;;;;;;;1999.90;999.90;;;20.90;99.90;;;;;;4913188;29;20040;-82
2022/05/20 09:02:20;;;;;;;1999.90;999.90;;;20.80;99.90;;;;;;4916065;29;20107;-74
2022/05/20 09:04:47;;;;;;;1999.90;999.90;;;21.00;99.90;;;;;;4914835;29;20046;-75
2022/05/20 09:07:16;;;;;;;1999.90;999.90;;;21.20;99.90;;;;;;4914585;29;20036;-75
2022/05/20 09:09:51;;;;;;;1999.90;999.90;;;21.40;99.90;;;;;;4916090;29;20036;-82
2022/05/20 09:12:27;;;;;;;1999.90;999.90;;;21.70;99.90;;;;;;4916318;29;20039;-83
2022/05/20 09:17:48;;;;;;;1999.90;999.90;;;22.60;99.90;;;;;;4912750;29;20051;-82
2022/05/20 09:20:17;;;;;;;1999.90;999.90;;;23.40;99.90;;;;;;4914793;29;20063;-75
2022/05/20 09:22:58;;;;;;;1999.90;999.90;;;23.30;99.90;;;;;;4915179;29;20468;-82
2022/05/20 09:25:27;;;;;;;1999.90;999.90;;;22.80;99.90;;;;;;4904056;29;20016;-81
2022/05/20 09:28:12;;;;;;;1999.90;999.90;;;22.50;99.90;;;;;;4907091;29;20476;-75
2022/05/20 09:30:39;;;;;;;1999.90;999.90;;;22.30;99.90;;;;;;4915930;29;20484;-75
2022/05/20 09:33:18;;;;;;;1999.90;999.90;;;22.10;99.90;;;;;;4920388;29;20027;-75
2022/05/20 09:35:50;;;;;;;1999.90;999.90;;;22.00;99.90;;;;;;4914562;29;20059;-82
2022/05/20 09:38:40;;;;;;;1999.90;999.90;;;22.00;99.90;;;;;;4914471;29;20032;-81
2022/05/20 09:41:24;;;;;;;1999.90;999.90;;;21.90;99.90;;;;;;4913836;29;20032;-84
2022/05/20 09:44:00;;;;;;;1999.90;999.90;;;21.70;99.90;;;;;;4915025;29;20031;-80
2022/05/20 09:46:44;;;;;;;1999.90;999.90;;;21.80;99.90;;;;;;4913364;29;20029;-82
2022/05/20 09:49:19;;;;;;;1999.90;999.90;;;22.00;99.90;;;;;;4913271;29;20119;-80
2022/05/20 09:51:57;;;;;;;1999.90;999.90;;;21.90;99.90;;;;;;4914903;29;20129;-81
2022/05/20 09:54:32;;;;;;;1999.90;999.90;;;22.00;99.90;;;;;;4913427;29;20032;-76
2022/05/20 09:57:21;;;;;;;1999.90;999.90;;;21.40;99.90;;;;;;4914530;29;20040;-81
2022/05/20 10:00:05;;;;;;;1999.90;999.90;;;21.30;99.90;;;;;;4905803;29;20037;-76
2022/05/20 10:02:43;;;;;;;1999.90;999.90;;;21.80;99.90;;;;;;4916473;29;20388;-80
2022/05/20 10:05:11;;;;;;;1999.90;999.90;;;22.70;99.90;;;;;;4914025;29;20028;-76
2022/05/20 10:08:06;;;;;;;1999.90;999.90;;;23.50;99.90;;;;;;4913199;29;20389;-75
2022/05/20 10:10:51;;;;;;;1999.90;999.90;;;25.20;99.90;;;;;;4915949;29;20431;-76
2022/05/20 10:13:36;;;;;;;1999.90;999.90;;;24.90;99.90;;;;;;4923861;29;20809;-76
2022/05/20 10:16:34;;;;;;;1999.90;999.90;;;26.40;99.90;;;;;;4913212;29;20525;-83
2022/05/20 10:19:20;;;;;;;1999.90;999.90;;;26.20;99.90;;;;;;4911758;29;20039;-82
2022/05/20 10:22:02;;;;;;;1999.90;999.90;;;25.00;99.90;;;;;;4923292;28;20053;-82
2022/05/20 10:24:41;;;;;;;1999.90;999.90;;;24.70;99.90;;;;;;4905163;29;20028;-77
2022/05/20 10:27:30;;;;;;;1999.90;999.90;;;26.40;99.90;;;;;;4920848;29;20032;-76
2022/05/20 10:32:49;;;;;;;1999.90;999.90;;;26.30;99.70;;;;;;4912511;29;20064;-84
2022/05/20 10:35:20;;;;;;;1999.90;999.90;;;25.60;99.90;;;;;;4911145;29;20173;-85
2022/05/20 10:38:03;;;;;;;1999.90;999.90;;;24.80;99.90;;;;;;4914191;29;20494;-75
2022/05/20 10:40:34;;;;;;;1999.90;999.90;;;24.30;99.90;;;;;;4910276;29;20038;-82
2022/05/20 10:43:18;;;;;;;1999.90;999.90;;;24.10;99.90;;;;;;4916064;29;20406;-84
2022/05/20 10:48:56;;;;;;;1999.90;999.90;;;23.90;99.90;;;;;;4915236;29;20566;-84
2022/05/20 10:51:40;;;;;;;1999.90;999.90;;;23.50;99.90;;;;;;4916366;29;20032;-85
2022/05/20 10:54:42;;;;;;;1999.90;999.90;;;23.20;99.90;;;;;;4913828;29;20044;-83
2022/05/20 10:57:10;;;;;;;1999.90;999.90;;;22.80;99.90;;;;;;4916496;29;20048;-83
2022/05/20 11:00:05;;;;;;;1999.90;999.90;;;22.40;99.90;;;;;;4918198;29;20047;-75
2022/05/20 11:03:09;;;;;;;1999.90;999.90;;;22.80;99.90;;;;;;4915887;29;20032;-83
2022/05/20 11:05:43;;;;;;;1999.90;999.90;;;23.00;99.90;;;;;;4914750;29;20031;-84
2022/05/20 11:08:28;;;;;;;1999.90;999.90;;;23.20;99.90;;;;;;4917477;29;20039;-75
2022/05/20 11:11:12;;;;;;;1999.90;999.90;;;23.10;99.90;;;;;;4922166;29;20028;-76
2022/05/20 11:14:00;;;;;;;1999.90;999.90;;;22.80;99.90;;;;;;4914289;29;20484;-74
2022/05/20 11:16:44;;;;;;;1999.90;999.90;;;22.80;99.90;;;;;;4921339;29;20515;-75
2022/05/20 11:19:12;;;;;;;1999.90;999.90;;;22.50;99.90;;;;;;4911278;29;20537;-75
2022/05/20 11:21:41;;;;;;;1999.90;999.90;;;22.80;99.90;;;;;;4912380;29;20032;-83
2022/05/20 11:24:28;;;;;;;1999.90;999.90;;;22.70;99.90;;;;;;4914770;29;20029;-75
2022/05/20 11:27:15;;;;;;;1999.90;999.90;;;22.90;99.90;;;;;;4916602;29;20133;-83
2022/05/20 11:30:00;;;;;;;1999.90;999.90;;;23.20;99.90;;;;;;4917203;29;20131;-75
2022/05/20 11:33:03;;;;;;;1999.90;999.90;;;23.50;99.90;;;;;;4920710;29;20123;-74
2022/05/20 11:35:50;;;;;;;1999.90;999.90;;;23.70;99.90;;;;;;4915349;29;20039;-74
2022/05/20 11:38:21;;;;;;;1999.90;999.90;;;24.30;99.90;;;;;;4924536;29;20036;-74
2022/05/20 11:41:11;;;;;;;1999.90;999.90;;;24.40;99.90;;;;;;4915890;29;20496;-84
2022/05/20 11:43:57;;;;;;;1999.90;999.90;;;24.70;99.90;;;;;;4918729;29;20791;-84
2022/05/20 11:46:41;;;;;;;1999.90;999.90;;;24.90;99.90;;;;;;4920964;29;20111;-83
2022/05/20 11:49:31;;;;;;;1999.90;999.90;;;24.40;99.90;;;;;;4913200;29;20032;-83
2022/05/20 11:52:12;;;;;;;1999.90;999.90;;;24.90;99.90;;;;;;4916806;29;20028;-86
2022/05/20 11:54:52;;;;;;;1999.90;999.90;;;25.10;99.90;;;;;;4920514;29;20017;-83
2022/05/20 11:57:21;;;;;;;1999.90;999.90;;;25.50;99.90;;;;;;4910890;29;20054;-74
2022/05/20 12:00:06;;;;;;;1999.90;999.90;;;25.90;99.90;;;;;;4912714;29;20039;-85
2022/05/20 12:02:38;;;;;;;1999.90;999.90;;;26.50;98.70;;;;;;4914471;29;20055;-80
2022/05/20 12:05:05;;;;;;;;;;;26.40;98.40;;;;;;4921140;29;20067;-75
2022/05/20 12:07:37;;;;;;;1999.90;999.90;;;27.20;97.90;;;;;;4916182;29;19911;-83
2022/05/20 12:10:23;;;;;;;;;;;27.10;97.80;;;;;;4921368;29;20503;-83
2022/05/20 12:13:06;;;;;;;1999.90;999.90;;;26.90;97.50;;;;;;4926026;29;19912;-83
2022/05/20 12:15:44;;;;;;;1999.90;999.90;;;27.10;97.30;;;;;;4918638;29;20083;-75
2022/05/20 12:24:11;;;;;;;1999.90;999.90;;;26.10;97.70;;;;;;4917413;29;20083;-81
2022/05/20 12:24:12;;;;;;;1999.90;999.90;;;27.80;96.00;;;;;;4916316;29;20051;-81
2022/05/20 12:26:51;;;;;;;1999.90;999.90;;;28.30;95.80;;;;;;4907217;29;20447;-81
2022/05/20 12:29:35;;;;;;;1999.90;999.90;;;28.60;95.20;;;;;;4915759;29;20514;-81
2022/05/20 12:32:25;;;;;;;1999.90;999.90;;;28.40;95.00;;;;;;4919248;29;20384;-80
2022/05/20 12:35:12;;;;;;;1999.90;999.90;;;28.20;95.20;;;;;;4918125;29;20554;-82
2022/05/20 12:37:40;;;;;;;1999.90;999.90;;;27.70;95.40;;;;;;4922054;29;20028;-82
2022/05/20 12:40:24;;;;;;;1999.90;999.90;;;27.30;95.50;;;;;;4921831;29;20034;-76
2022/05/20 12:43:10;;;;;;;1999.90;999.90;;;27.60;95.20;;;;;;4910603;29;20028;-81
2022/05/20 12:45:41;;;;;;;1999.90;999.90;;;26.10;95.60;;;;;;4925836;29;20036;-81
2022/05/20 12:48:07;;;;;;;1999.90;999.90;;;26.20;95.90;;;;;;4914465;29;20029;-79
2022/05/20 12:50:33;;;;;;;1999.90;999.90;;;26.00;94.60;;;;;;4915017;29;20131;-81
2022/05/20 12:53:02;;;;;;;1999.90;999.90;;;26.10;94.30;;;;;;4916469;29;20140;-80
2022/05/20 12:55:43;;;;;;;1999.90;999.90;;;25.90;94.30;;;;;;4919287;29;20569;-79
2022/05/20 12:58:13;;;;;;;1999.90;999.90;;;25.80;94.20;;;;;;4923848;29;20024;-79
2022/05/20 13:00:44;;;;;;;1999.90;999.90;;;25.60;94.60;;;;;;4915745;29;20495;-79